Terminal Aerodrome Forecast
Issued by NWS

Home | Current Version | Previous Version | Text Only | Print | Product List | Glossary On
Versions: 1 2 3 4 5 6 7 8 9 10 11 12
753
FTUS42 TJSJ 101125
TAFKPK
TAF
TKPK 101125Z 1012/1112 07011KT P6SM FEW022
     FM101300 10015KT P6SM FEW020 SCT040
     FM102300 09009KT P6SM FEW022=

USA.gov is the U.S. government's official web portal to all federal, state and local government web resources and services.